createdAt,value
2019-06-27T00:01:43.204Z,99029.25
2019-06-27T00:04:13.608Z,99024.16
2019-06-27T00:06:43.853Z,99030.31
2019-06-27T00:09:15.163Z,99031.33
2019-06-27T00:11:45.683Z,99030.91
2019-06-27T00:14:16.229Z,99027.06
2019-06-27T00:16:46.438Z,99025.69
2019-06-27T00:19:16.781Z,99042.38
2019-06-27T00:21:47.481Z,99040.47
2019-06-27T00:24:18.709Z,99037.32
2019-06-27T00:26:57.292Z,99043.20
2019-06-27T00:29:21.279Z,99041.73
2019-06-27T00:31:51.521Z,99044.44
2019-06-27T00:34:22.166Z,99048.08
2019-06-27T00:36:52.451Z,99042.31
2019-06-27T00:39:23.045Z,99047.42
2019-06-27T00:41:53.916Z,99047.70
2019-06-27T00:44:24.603Z,99053.64
2019-06-27T00:46:54.892Z,99048.47
2019-06-27T00:49:25.247Z,99041.77
2019-06-27T00:51:55.884Z,99045.44
2019-06-27T00:54:27.204Z,99045.31
2019-06-27T00:57:12.916Z,99041.80
2019-06-27T00:59:30.176Z,99051.48
2019-06-27T01:02:00.421Z,99056.44
2019-06-27T01:04:30.644Z,99067.05
2019-06-27T01:07:01.078Z,99068.56
2019-06-27T01:09:31.298Z,99065.89
2019-06-27T01:12:01.504Z,99069.72
2019-06-27T01:14:31.738Z,99072.50
2019-06-27T01:17:02.020Z,99068.76
2019-06-27T01:19:32.248Z,99070.25
2019-06-27T01:22:02.455Z,99064.66
2019-06-27T01:24:32.697Z,99069.33
2019-06-27T01:27:03.330Z,99072.84
2019-06-27T01:29:33.550Z,99073.05
2019-06-27T01:32:03.823Z,99075.91
2019-06-27T01:34:35.128Z,99079.47
2019-06-27T01:37:05.523Z,99076.66
2019-06-27T01:39:35.775Z,99082.29
2019-06-27T01:42:06.974Z,99085.38
2019-06-27T01:44:45.735Z,99087.61
2019-06-27T01:47:16.019Z,99086.11
2019-06-27T01:49:46.190Z,99083.39
2019-06-27T01:52:16.568Z,99086.37
2019-06-27T01:54:47.244Z,99083.30
2019-06-27T01:57:17.634Z,99081.23
2019-06-27T01:59:47.930Z,99088.18
2019-06-27T02:02:18.257Z,99095.25
2019-06-27T02:04:48.471Z,99094.02
2019-06-27T02:07:19.102Z,99096.93
2019-06-27T02:09:49.307Z,99093.89
2019-06-27T02:12:20.106Z,99098.02
2019-06-27T02:14:50.390Z,99097.11
2019-06-27T02:19:36.085Z,99100.23
2019-06-27T02:22:06.324Z,99105.63
2019-06-27T02:24:36.709Z,99102.56
2019-06-27T02:27:07.003Z,99108.41
2019-06-27T02:29:37.303Z,99105.09
2019-06-27T02:32:07.570Z,99112.85
2019-06-27T02:34:37.834Z,99111.08
2019-06-27T02:37:08.091Z,99116.77
2019-06-27T02:39:38.350Z,99122.40
2019-06-27T02:42:08.660Z,99118.56
2019-06-27T02:44:39.409Z,99117.75
2019-06-27T02:47:09.803Z,99122.54
2019-06-27T02:49:40.488Z,99121.84
2019-06-27T02:52:10.986Z,99127.19
2019-06-27T02:54:41.222Z,99125.83
2019-06-27T02:57:11.814Z,99127.33
2019-06-27T02:59:42.100Z,99126.88
2019-06-27T03:02:12.679Z,99130.13
2019-06-27T03:04:42.955Z,99134.28
2019-06-27T03:07:13.495Z,99134.66
2019-06-27T03:09:43.788Z,99136.06
2019-06-27T03:12:14.034Z,99134.10
2019-06-27T03:14:44.263Z,99129.83
2019-06-27T03:17:14.589Z,99129.52
2019-06-27T03:19:45.149Z,99128.47
2019-06-27T03:22:15.562Z,99132.41
2019-06-27T03:24:45.752Z,99127.66
2019-06-27T03:27:16.548Z,99132.27
2019-06-27T03:29:47.365Z,99137.08
2019-06-27T03:32:18.045Z,99139.45
2019-06-27T03:34:48.286Z,99135.38
2019-06-27T03:37:19.087Z,99143.92
2019-06-27T03:39:49.694Z,99144.61
2019-06-27T03:42:20.847Z,99145.31
2019-06-27T03:44:51.162Z,99153.30
2019-06-27T03:47:21.796Z,99155.91
2019-06-27T03:49:52.104Z,99148.50
2019-06-27T03:52:22.390Z,99159.06
2019-06-27T03:54:52.699Z,99155.33
2019-06-27T03:57:24.213Z,99158.20
2019-06-27T03:59:54.571Z,99162.63
2019-06-27T04:02:24.823Z,99161.41
2019-06-27T04:04:55.174Z,99163.59
2019-06-27T04:07:25.536Z,99164.58
2019-06-27T04:09:56.025Z,99158.44
2019-06-27T04:12:26.593Z,99162.61
2019-06-27T04:14:56.787Z,99172.59
2019-06-27T04:22:24.754Z,99174.77
2019-06-27T04:24:55.011Z,99180.59
2019-06-27T04:29:54.339Z,99172.24
2019-06-27T04:32:25.095Z,99169.77
2019-06-27T04:34:55.743Z,99172.81
2019-06-27T04:37:26.094Z,99183.53
2019-06-27T04:39:56.671Z,99182.95
2019-06-27T04:42:26.924Z,99178.20
2019-06-27T04:44:57.232Z,99177.39
2019-06-27T04:47:27.853Z,99187.69
2019-06-27T04:49:58.469Z,99186.92
2019-06-27T04:52:29.123Z,99184.11
2019-06-27T04:55:03.374Z,99180.77
2019-06-27T04:57:32.034Z,99178.50
2019-06-27T05:00:02.335Z,99178.06
2019-06-27T05:02:32.608Z,99182.55
2019-06-27T05:05:02.930Z,99185.23
2019-06-27T05:07:34.662Z,99181.77
2019-06-27T05:10:05.532Z,99185.29
2019-06-27T05:12:35.752Z,99179.70
2019-06-27T05:15:06.983Z,99187.39
2019-06-27T05:17:37.802Z,99187.05
2019-06-27T05:20:08.426Z,99180.14
2019-06-27T05:22:38.726Z,99182.61
2019-06-27T05:25:08.956Z,99179.42
2019-06-27T05:27:39.812Z,99170.73
2019-06-27T05:30:10.744Z,99180.23
2019-06-27T05:32:41.011Z,99180.18
2019-06-27T05:35:11.612Z,99175.93
2019-06-27T05:37:43.518Z,99180.59
2019-06-27T05:40:14.260Z,99186.95
2019-06-27T05:42:44.457Z,99190.05
2019-06-27T05:45:14.732Z,99187.69
2019-06-27T05:47:45.290Z,99186.41
2019-06-27T05:50:15.637Z,99185.19
2019-06-27T05:52:45.805Z,99184.28
2019-06-27T05:55:16.020Z,99190.36
2019-06-27T05:57:46.246Z,99184.66
2019-06-27T06:00:27.507Z,99187.31
2019-06-27T06:02:48.728Z,99187.09
2019-06-27T06:05:18.977Z,99184.82
2019-06-27T06:07:49.268Z,99190.76
2019-06-27T06:10:20.588Z,99190.95
2019-06-27T06:12:50.813Z,99189.62
2019-06-27T06:15:21.069Z,99191.11
2019-06-27T06:17:51.470Z,99196.51
2019-06-27T06:20:22.997Z,99196.39
2019-06-27T06:22:53.469Z,99191.11
2019-06-27T06:25:23.791Z,99196.73
2019-06-27T06:27:54.292Z,99203.60
2019-06-27T06:30:24.789Z,99200.67
2019-06-27T06:32:55.492Z,99197.53
2019-06-27T06:35:25.748Z,99191.52
2019-06-27T06:37:55.938Z,99192.80
2019-06-27T06:40:26.436Z,99199.75
2019-06-27T06:43:00.330Z,99199.27
2019-06-27T06:45:28.942Z,99195.89
2019-06-27T06:47:59.132Z,99193.27
2019-06-27T06:50:29.380Z,99196.86
2019-06-27T06:52:59.678Z,99194.84
2019-06-27T06:55:29.879Z,99193.28
2019-06-27T06:58:00.166Z,99192.19
2019-06-27T07:00:30.424Z,99195.98
2019-06-27T07:03:00.655Z,99193.11
2019-06-27T07:05:30.907Z,99202.74
2019-06-27T07:08:01.533Z,99202.74
2019-06-27T07:10:32.510Z,99197.86
2019-06-27T07:13:03.115Z,99201.44
2019-06-27T07:15:33.353Z,99198.75
2019-06-27T07:18:03.557Z,99191.34
2019-06-27T07:20:34.160Z,99194.42
2019-06-27T07:23:04.558Z,99196.97
2019-06-27T07:25:35.500Z,99207.34
2019-06-27T07:28:06.568Z,99199.90
2019-06-27T07:30:36.737Z,99206.31
2019-06-27T07:33:10.084Z,99202.87
2019-06-27T07:35:38.912Z,99199.11
2019-06-27T07:38:09.506Z,99201.20
2019-06-27T07:40:39.832Z,99203.05
2019-06-27T07:43:10.224Z,99199.83
2019-06-27T07:45:40.508Z,99204.50
2019-06-27T07:48:11.243Z,99200.27
2019-06-27T07:50:41.426Z,99194.28
2019-06-27T07:53:11.969Z,99198.48
2019-06-27T07:55:42.256Z,99202.61
2019-06-27T07:58:12.494Z,99187.13
2019-06-27T08:00:42.777Z,99193.03
2019-06-27T08:03:12.967Z,99187.86
2019-06-27T08:05:43.522Z,99186.91
2019-06-27T08:08:13.780Z,99189.82
2019-06-27T08:10:44.077Z,99192.09
2019-06-27T08:13:14.631Z,99185.37
2019-06-27T08:15:44.816Z,99194.19
2019-06-27T08:18:15.194Z,99187.07
2019-06-27T08:20:45.384Z,99183.64
2019-06-27T08:23:15.701Z,99184.49
2019-06-27T08:25:45.916Z,99182.86
2019-06-27T08:28:16.126Z,99178.59
2019-06-27T08:30:46.441Z,99181.16
2019-06-27T08:33:17.281Z,99181.00
2019-06-27T08:35:47.908Z,99176.25
2019-06-27T08:38:18.189Z,99175.16
2019-06-27T08:40:48.366Z,99176.48
2019-06-27T08:43:18.637Z,99166.91
2019-06-27T08:45:48.923Z,99166.85
2019-06-27T08:48:19.136Z,99174.84
2019-06-27T08:50:49.366Z,99174.16
2019-06-27T08:53:19.802Z,99172.47
2019-06-27T08:55:50.329Z,99169.07
2019-06-27T08:58:21.111Z,99169.19
2019-06-27T09:00:51.445Z,99171.64
2019-06-27T09:03:22.167Z,99168.31
2019-06-27T09:05:52.433Z,99168.77
2019-06-27T09:08:22.705Z,99160.59
2019-06-27T09:10:52.996Z,99168.50
2019-06-27T09:13:23.646Z,99156.01
2019-06-27T09:15:53.941Z,99163.55
2019-06-27T09:18:24.836Z,99162.33
2019-06-27T09:20:55.102Z,99164.48
2019-06-27T09:23:25.836Z,99163.59
2019-06-27T09:25:56.359Z,99161.23
2019-06-27T09:28:27.162Z,99165.65
2019-06-27T09:30:57.442Z,99166.84
2019-06-27T09:33:28.045Z,99162.98
2019-06-27T09:35:58.280Z,99165.36
2019-06-27T09:38:28.564Z,99162.22
2019-06-27T09:40:58.828Z,99160.44
2019-06-27T09:43:29.026Z,99167.07
2019-06-27T09:45:59.567Z,99160.70
2019-06-27T09:48:29.855Z,99162.73
2019-06-27T09:51:00.136Z,99159.60
2019-06-27T09:53:30.621Z,99160.91
2019-06-27T09:56:00.912Z,99158.98
2019-06-27T09:58:31.114Z,99155.91
2019-06-27T10:01:01.332Z,99160.49
2019-06-27T10:03:31.602Z,99153.86
2019-06-27T10:06:02.501Z,99153.05
2019-06-27T10:08:32.917Z,99154.50
2019-06-27T10:11:03.175Z,99154.02
2019-06-27T10:13:33.412Z,99156.16
2019-06-27T10:16:03.697Z,99160.95
2019-06-27T10:18:34.292Z,99155.92
2019-06-27T10:21:04.555Z,99152.24
2019-06-27T10:23:34.800Z,99154.55
2019-06-27T10:26:06.328Z,99153.15
2019-06-27T10:28:36.944Z,99151.20
2019-06-27T10:31:07.168Z,99148.67
2019-06-27T10:33:37.771Z,99153.95
2019-06-27T10:36:08.613Z,99145.56
2019-06-27T10:38:38.914Z,99149.34
2019-06-27T10:41:09.180Z,99146.10
2019-06-27T10:43:39.408Z,99140.70
2019-06-27T10:46:10.664Z,99145.16
2019-06-27T10:48:40.944Z,99148.45
2019-06-27T10:51:11.220Z,99148.92
2019-06-27T10:53:41.488Z,99144.25
2019-06-27T10:56:11.782Z,99143.64
2019-06-27T10:58:42.018Z,99146.16
2019-06-27T11:01:12.249Z,99145.80
2019-06-27T11:03:42.761Z,99143.79
2019-06-27T11:06:13.348Z,99132.66
2019-06-27T11:08:43.519Z,99139.47
2019-06-27T11:11:13.749Z,99133.31
2019-06-27T11:13:57.979Z,99130.16
2019-06-27T11:16:17.090Z,99122.04
2019-06-27T11:18:47.473Z,99126.72
2019-06-27T11:21:18.272Z,99123.67
2019-06-27T11:23:48.883Z,99123.84
2019-06-27T11:26:19.347Z,99123.84
2019-06-27T11:28:49.810Z,99122.72
2019-06-27T11:31:20.144Z,99120.03
2019-06-27T11:33:50.590Z,99111.38
2019-06-27T11:36:21.118Z,99109.95
2019-06-27T11:38:51.360Z,99101.28
2019-06-27T11:41:21.852Z,99102.37
2019-06-27T11:43:52.405Z,99099.16
2019-06-27T11:46:22.719Z,99093.13
2019-06-27T11:48:53.977Z,99086.39
2019-06-27T11:51:24.282Z,99087.33
2019-06-27T11:53:54.562Z,99078.92
2019-06-27T11:56:26.091Z,99088.09
2019-06-27T11:58:56.392Z,99075.45
2019-06-27T12:01:26.891Z,99078.77
2019-06-27T12:03:57.179Z,99072.98
2019-06-27T12:06:27.451Z,99070.39
2019-06-27T12:08:58.008Z,99066.11
2019-06-27T12:11:28.308Z,99066.68
2019-06-27T12:13:58.505Z,99063.66
2019-06-27T12:16:28.696Z,99061.66
2019-06-27T12:18:58.917Z,99066.70
2019-06-27T12:21:29.197Z,99061.89
2019-06-27T12:23:59.468Z,99054.67
2019-06-27T12:26:29.745Z,99047.30
2019-06-27T12:29:00.296Z,99049.56
2019-06-27T12:31:30.501Z,99056.13
2019-06-27T12:34:06.970Z,99046.90
2019-06-27T12:36:33.001Z,99044.20
2019-06-27T12:39:03.772Z,99042.38
2019-06-27T12:41:35.386Z,99039.34
2019-06-27T12:44:05.656Z,99043.36
2019-06-27T12:46:35.917Z,99035.16
2019-06-27T12:49:06.093Z,99032.81
2019-06-27T12:51:36.394Z,99031.28
2019-06-27T12:54:06.641Z,99034.91
2019-06-27T12:56:37.280Z,99034.79
2019-06-27T12:59:07.550Z,99023.81
2019-06-27T13:01:37.780Z,99029.28
2019-06-27T13:04:22.295Z,99021.06
2019-06-27T13:06:40.048Z,99021.41
2019-06-27T13:09:10.449Z,99027.05
2019-06-27T13:11:40.773Z,99017.39
2019-06-27T13:14:10.996Z,99014.52
2019-06-27T13:16:41.304Z,99010.76
2019-06-27T13:19:11.551Z,99011.63
2019-06-27T13:21:42.269Z,99009.58
2019-06-27T13:24:12.490Z,99013.77
2019-06-27T13:26:42.760Z,99009.15
2019-06-27T13:29:13.056Z,99008.11
2019-06-27T13:31:43.703Z,98998.44
2019-06-27T13:34:14.816Z,98996.42
2019-06-27T13:36:45.089Z,99004.56
2019-06-27T13:39:15.385Z,98999.23
2019-06-27T13:41:45.966Z,98997.40
2019-06-27T13:44:16.263Z,98996.21
2019-06-27T13:46:46.936Z,98996.53
2019-06-27T13:49:17.433Z,98994.20
2019-06-27T13:51:47.595Z,98994.91
2019-06-27T13:54:18.078Z,98988.58
2019-06-27T13:56:48.267Z,98992.22
2019-06-27T13:59:18.576Z,98990.80
2019-06-27T14:01:48.844Z,98983.00
2019-06-27T14:04:19.288Z,98985.13
2019-06-27T14:06:49.472Z,98979.67
2019-06-27T14:09:23.523Z,98981.48
2019-06-27T14:11:52.148Z,98986.20
2019-06-27T14:14:22.384Z,98984.95
2019-06-27T14:16:52.588Z,98982.63
2019-06-27T14:19:22.863Z,98985.63
2019-06-27T14:21:53.159Z,98976.12
2019-06-27T14:24:23.417Z,98979.41
2019-06-27T14:26:53.679Z,98971.16
2019-06-27T14:29:24.033Z,98990.89
2019-06-27T14:31:54.617Z,98973.23
2019-06-27T14:34:24.982Z,98974.53
2019-06-27T14:36:55.164Z,98971.80
2019-06-27T14:39:25.649Z,98964.84
2019-06-27T14:41:56.011Z,98965.80
2019-06-27T14:44:26.235Z,98966.13
2019-06-27T14:46:57.516Z,98961.10
2019-06-27T14:49:28.938Z,98953.78
2019-06-27T14:51:59.463Z,98952.37
2019-06-27T14:54:29.683Z,98949.22
2019-06-27T14:56:59.862Z,98947.88
2019-06-27T14:59:30.980Z,98940.98
2019-06-27T15:02:01.618Z,98934.84
2019-06-27T15:04:31.892Z,98938.08
2019-06-27T15:07:03.084Z,98941.72
2019-06-27T15:09:33.382Z,98951.73
2019-06-27T15:12:03.633Z,98933.22
2019-06-27T15:14:33.919Z,98942.14
2019-06-27T15:17:04.192Z,98937.53
2019-06-27T15:19:34.460Z,98936.92
2019-06-27T15:22:05.213Z,98941.73
2019-06-27T15:24:35.810Z,98936.34
2019-06-27T15:27:06.459Z,98936.95
2019-06-27T15:29:37.554Z,98929.75
2019-06-27T15:32:07.772Z,98929.22
2019-06-27T15:34:38.985Z,98934.87
2019-06-27T15:37:09.237Z,98927.08
2019-06-27T15:39:39.557Z,98926.27
2019-06-27T15:42:09.779Z,98925.40
2019-06-27T15:44:40.152Z,98920.84
2019-06-27T15:47:10.326Z,98920.53
2019-06-27T15:49:45.014Z,98924.27
2019-06-27T15:52:15.293Z,98911.17
2019-06-27T15:54:45.655Z,98907.50
2019-06-27T15:57:16.024Z,98902.42
2019-06-27T15:59:46.244Z,98904.35
2019-06-27T16:02:16.483Z,98906.46
2019-06-27T16:04:47.254Z,98906.36
2019-06-27T16:07:17.817Z,98904.51
2019-06-27T16:09:48.480Z,98894.04
2019-06-27T16:12:18.739Z,98893.51
2019-06-27T16:14:48.938Z,98895.05
2019-06-27T16:17:19.322Z,98896.89
2019-06-27T16:19:49.526Z,98895.20
2019-06-27T16:22:19.819Z,98897.00
2019-06-27T16:24:50.099Z,98892.89
2019-06-27T16:27:20.967Z,98887.12
2019-06-27T16:29:51.243Z,98894.34
2019-06-27T16:32:21.515Z,98887.42
2019-06-27T16:34:52.370Z,98890.14
2019-06-27T16:37:22.942Z,98879.50
2019-06-27T16:39:53.223Z,98883.36
2019-06-27T16:42:23.523Z,98878.36
2019-06-27T16:44:54.714Z,98885.31
2019-06-27T16:47:24.973Z,98880.57
2019-06-27T16:49:55.861Z,98885.88
2019-06-27T16:52:26.100Z,98882.86
2019-06-27T16:54:56.392Z,98879.11
2019-06-27T16:57:27.921Z,98875.80
2019-06-27T16:59:58.218Z,98877.71
2019-06-27T17:02:28.430Z,98887.08
2019-06-27T17:04:58.690Z,98885.22
2019-06-27T17:07:28.869Z,98885.29
2019-06-27T17:09:59.098Z,98892.78
2019-06-27T17:12:29.279Z,98876.91
2019-06-27T17:14:59.556Z,98889.77
2019-06-27T17:17:30.225Z,98895.97
2019-06-27T17:20:00.530Z,98882.32
2019-06-27T17:22:32.164Z,98879.56
2019-06-27T17:25:04.244Z,98886.64
2019-06-27T17:27:35.727Z,98887.77
2019-06-27T17:30:08.459Z,98884.45
2019-06-27T17:32:38.837Z,98890.53
2019-06-27T17:35:09.110Z,98895.84
2019-06-27T17:37:39.371Z,98891.91
2019-06-27T17:40:10.307Z,98892.92
2019-06-27T17:42:40.960Z,98894.80
2019-06-27T17:45:11.738Z,98884.78
2019-06-27T17:47:42.092Z,98886.45
2019-06-27T17:50:12.826Z,98884.84
2019-06-27T17:52:43.422Z,98891.29
2019-06-27T17:55:14.541Z,98892.98
2019-06-27T17:57:47.245Z,98893.48
2019-06-27T18:00:17.259Z,98889.21
2019-06-27T18:02:47.509Z,98883.23
2019-06-27T18:05:18.837Z,98884.48
2019-06-27T18:07:49.491Z,98885.75
2019-06-27T18:10:20.971Z,98891.98
2019-06-27T18:12:51.536Z,98880.59
2019-06-27T18:15:22.167Z,98878.34
2019-06-27T18:17:52.344Z,98885.92
2019-06-27T18:20:23.188Z,98881.86
2019-06-27T18:22:53.481Z,98884.17
2019-06-27T18:25:23.770Z,98880.73
2019-06-27T18:27:54.036Z,98884.69
2019-06-27T18:30:24.524Z,98884.27
2019-06-27T18:32:55.135Z,98887.73
2019-06-27T18:35:25.828Z,98893.84
2019-06-27T18:37:56.131Z,98889.26
2019-06-27T18:40:26.489Z,98892.41
2019-06-27T18:42:56.796Z,98894.95
2019-06-27T18:45:27.107Z,98893.93
2019-06-27T18:47:57.770Z,98890.91
2019-06-27T18:50:28.558Z,98889.80
2019-06-27T18:52:59.127Z,98886.83
2019-06-27T18:55:29.390Z,98886.60
2019-06-27T18:57:59.729Z,98897.61
2019-06-27T19:00:30.932Z,98896.48
2019-06-27T19:03:01.518Z,98895.09
2019-06-27T19:05:32.174Z,98897.08
2019-06-27T19:08:02.408Z,98905.39
2019-06-27T19:10:32.657Z,98906.77
2019-06-27T19:13:03.007Z,98908.26
2019-06-27T19:15:33.584Z,98907.61
2019-06-27T19:18:04.131Z,98911.74
2019-06-27T19:20:49.671Z,98908.95
2019-06-27T19:23:38.763Z,98912.86
2019-06-27T19:26:09.042Z,98912.86
2019-06-27T19:28:39.404Z,98916.45
2019-06-27T19:31:10.331Z,98918.07
2019-06-27T19:33:40.904Z,98921.36
2019-06-27T19:36:11.489Z,98921.36
2019-06-27T19:38:42.029Z,98919.86
2019-06-27T19:41:12.544Z,98927.37
2019-06-27T19:43:42.788Z,98933.84
2019-06-27T19:46:13.986Z,98932.74
2019-06-27T19:48:45.711Z,98937.50
2019-06-27T19:51:16.407Z,98944.78
2019-06-27T19:53:46.650Z,98941.43
2019-06-27T19:56:17.218Z,98946.69
2019-06-27T19:58:47.499Z,98946.80
2019-06-27T20:01:18.054Z,98941.08
2019-06-27T20:03:48.344Z,98943.61
2019-06-27T20:06:18.690Z,98942.17
2019-06-27T20:08:48.985Z,98947.27
2019-06-27T20:11:19.318Z,98952.03
2019-06-27T20:13:49.557Z,98947.61
2019-06-27T20:16:19.861Z,98948.75
2019-06-27T20:18:50.689Z,98955.22
2019-06-27T20:21:21.319Z,98960.23
2019-06-27T20:23:51.807Z,98964.20
2019-06-27T20:26:22.720Z,98968.00
2019-06-27T20:28:52.936Z,98966.44
2019-06-27T20:31:23.210Z,98976.12
2019-06-27T20:33:53.485Z,98972.68
2019-06-27T20:36:23.668Z,98978.45
2019-06-27T20:38:53.915Z,98975.67
2019-06-27T20:41:24.286Z,98988.57
2019-06-27T20:43:54.486Z,98988.22
2019-06-27T20:46:24.660Z,98992.05
2019-06-27T20:48:54.866Z,98986.83
2019-06-27T20:51:25.093Z,98996.11
2019-06-27T20:53:55.628Z,98999.92
2019-06-27T20:56:25.940Z,99001.39
2019-06-27T20:58:57.660Z,98995.02
2019-06-27T21:01:31.530Z,99002.23
2019-06-27T21:04:00.966Z,99005.33
2019-06-27T21:06:32.053Z,99006.18
2019-06-27T21:09:02.925Z,99010.41
2019-06-27T21:11:33.695Z,99008.66
2019-06-27T21:14:04.741Z,99011.50
2019-06-27T21:16:35.922Z,99008.41
2019-06-27T21:19:07.161Z,99020.45
2019-06-27T21:21:37.378Z,99015.08
2019-06-27T21:24:08.694Z,99017.72
2019-06-27T21:26:38.957Z,99016.68
2019-06-27T21:29:09.239Z,99023.42
2019-06-27T21:31:39.768Z,99020.05
2019-06-27T21:34:10.368Z,99019.22
2019-06-27T21:36:40.542Z,99025.02
2019-06-27T21:39:10.825Z,99028.39
2019-06-27T21:41:41.087Z,99029.75
2019-06-27T21:44:11.364Z,99029.34
2019-06-27T21:46:41.673Z,99030.50
2019-06-27T21:49:12.859Z,99030.09
2019-06-27T21:51:43.196Z,99026.39
2019-06-27T21:54:13.496Z,99028.92
2019-06-27T21:56:43.772Z,99029.23
2019-06-27T21:59:14.051Z,99033.76
2019-06-27T22:01:44.411Z,99032.59
2019-06-27T22:04:15.063Z,99038.14
2019-06-27T22:06:45.564Z,99039.39
2019-06-27T22:09:24.680Z,99045.39
2019-06-27T22:11:48.245Z,99032.77
2019-06-27T22:14:18.445Z,99030.88
2019-06-27T22:16:48.655Z,99036.45
2019-06-27T22:19:19.222Z,99034.61
2019-06-27T22:21:49.451Z,99039.96
2019-06-27T22:24:19.682Z,99044.48
2019-06-27T22:26:49.999Z,99042.70
2019-06-27T22:29:20.295Z,99045.30
2019-06-27T22:31:50.947Z,99034.87
2019-06-27T22:34:22.227Z,99037.47
2019-06-27T22:36:54.150Z,99046.18
2019-06-27T22:39:44.186Z,99046.18
2019-06-27T22:42:32.291Z,99048.91
2019-06-27T22:45:20.471Z,99043.33
2019-06-27T22:48:08.682Z,99047.44
2019-06-27T22:51:13.070Z,99044.59
2019-06-27T22:53:52.255Z,99042.80
2019-06-27T22:56:22.701Z,99043.41
2019-06-27T22:58:53.228Z,99043.41
2019-06-27T23:01:23.465Z,99048.27
2019-06-27T23:03:53.705Z,99042.61
2019-06-27T23:06:24.046Z,99049.36
2019-06-27T23:08:54.215Z,99050.50
2019-06-27T23:11:24.474Z,99052.20
2019-06-27T23:13:54.690Z,99044.30
2019-06-27T23:16:25.387Z,99041.13
2019-06-27T23:18:55.609Z,99044.39
2019-06-27T23:21:25.803Z,99041.02
2019-06-27T23:23:56.064Z,99041.02
2019-06-27T23:26:26.387Z,99049.45
2019-06-27T23:28:57.012Z,99050.48
2019-06-27T23:31:27.214Z,99042.23
2019-06-27T23:33:57.479Z,99041.78
2019-06-27T23:36:28.471Z,99045.31
2019-06-27T23:38:58.951Z,99045.58
2019-06-27T23:41:29.199Z,99047.47
2019-06-27T23:43:59.471Z,99046.40
2019-06-27T23:46:40.634Z,99046.55
2019-06-27T23:49:11.785Z,99043.03
2019-06-27T23:51:42.064Z,99044.16
2019-06-27T23:54:12.359Z,99049.38
2019-06-27T23:56:44.022Z,99039.70
2019-06-27T23:59:14.223Z,99047.47
